createdAt,value
2023-08-07T00:00:36.557Z,11.64
2023-08-07T00:03:41.785Z,11.58
2023-08-07T00:06:44.084Z,11.52
2023-08-07T00:09:47.564Z,11.50
2023-08-07T00:12:51.602Z,11.44
2023-08-07T00:16:04.255Z,11.40
2023-08-07T00:19:10.379Z,11.37
2023-08-07T00:22:14.988Z,11.31
2023-08-07T00:25:19.235Z,11.26
2023-08-07T00:28:23.125Z,11.23
2023-08-07T00:31:29.095Z,11.19
2023-08-07T00:34:42.318Z,11.16
2023-08-07T00:37:45.584Z,11.12
2023-08-07T00:40:56.528Z,11.12
2023-08-07T00:44:00.584Z,11.05
2023-08-07T00:47:06.822Z,11.07
2023-08-07T00:50:14.353Z,11.06
2023-08-07T00:53:19.748Z,11.04
2023-08-07T00:56:24.344Z,11.01
2023-08-07T00:59:28.988Z,10.99
2023-08-07T01:02:33.385Z,11.00
2023-08-07T01:05:38.455Z,10.98
2023-08-07T01:08:42.745Z,10.99
2023-08-07T01:12:10.425Z,10.95
2023-08-07T01:15:19.967Z,10.95
2023-08-07T01:18:23.544Z,10.94
2023-08-07T01:21:27.383Z,10.93
2023-08-07T01:24:32.553Z,10.94
2023-08-07T01:28:02.756Z,10.93
2023-08-07T01:31:14.901Z,10.93
2023-08-07T01:34:29.169Z,10.94
2023-08-07T01:37:33.961Z,10.92
2023-08-07T01:40:51.933Z,10.91
2023-08-07T01:44:04.712Z,10.92
2023-08-07T01:47:10.917Z,10.93
2023-08-07T01:50:16.193Z,10.91
2023-08-07T01:53:21.808Z,10.91
2023-08-07T01:56:27.618Z,10.90
2023-08-07T01:59:33.646Z,10.85
2023-08-07T02:02:46.821Z,10.89
2023-08-07T02:05:51.893Z,10.89
2023-08-07T02:09:00.117Z,10.90
2023-08-07T02:12:05.729Z,10.90
2023-08-07T02:15:09.963Z,10.93
2023-08-07T02:18:15.453Z,10.90
2023-08-07T02:21:26.520Z,10.90
2023-08-07T02:24:32.367Z,10.91
2023-08-07T02:27:44.160Z,10.93
2023-08-07T02:30:58.137Z,10.92
2023-08-07T02:34:12.864Z,10.95
2023-08-07T02:37:15.747Z,10.95
2023-08-07T02:40:29.422Z,10.93
2023-08-07T02:43:35.091Z,10.92
2023-08-07T02:46:37.307Z,10.93
2023-08-07T02:49:48.528Z,10.95
2023-08-07T02:52:52.090Z,10.98
2023-08-07T02:55:56.515Z,11.00
2023-08-07T03:02:26.030Z,10.97
2023-08-07T03:05:33.063Z,11.00
2023-08-07T03:08:44.330Z,10.98
2023-08-07T03:11:50.469Z,11.01
2023-08-07T03:14:57.236Z,11.03
2023-08-07T03:18:02.121Z,11.07
2023-08-07T03:24:27.254Z,11.06
2023-08-07T03:27:33.194Z,11.10
2023-08-07T03:30:38.452Z,11.09
2023-08-07T03:33:55.753Z,11.09
2023-08-07T03:37:08.271Z,11.09
2023-08-07T03:40:12.617Z,11.12
2023-08-07T03:43:18.370Z,11.12
2023-08-07T03:46:31.448Z,11.13
2023-08-07T03:49:45.734Z,11.15
2023-08-07T03:52:52.406Z,11.14
2023-08-07T03:55:57.319Z,11.14
2023-08-07T03:59:03.416Z,11.13
2023-08-07T04:02:18.423Z,11.15
2023-08-07T04:05:23.317Z,11.14
2023-08-07T04:08:27.279Z,11.16
2023-08-07T04:11:31.280Z,11.17
2023-08-07T04:14:35.842Z,11.17
2023-08-07T04:17:46.695Z,11.15
2023-08-07T04:20:58.313Z,11.20
2023-08-07T04:24:10.754Z,11.21
2023-08-07T04:27:23.834Z,11.23
2023-08-07T04:30:30.793Z,11.20
2023-08-07T04:33:35.936Z,11.22
2023-08-07T04:36:39.710Z,11.24
2023-08-07T04:39:44.922Z,11.24
2023-08-07T04:43:02.500Z,11.22
2023-08-07T04:46:07.968Z,11.20
2023-08-07T04:49:24.148Z,11.19
2023-08-07T04:52:28.256Z,11.18
2023-08-07T04:55:35.511Z,11.19
2023-08-07T04:58:42.467Z,11.21
2023-08-07T05:01:44.544Z,11.19
2023-08-07T05:04:52.710Z,11.11
2023-08-07T05:07:58.212Z,11.20
2023-08-07T05:11:03.341Z,11.20
2023-08-07T05:14:05.606Z,11.19
2023-08-07T05:17:09.484Z,11.20
2023-08-07T05:20:13.279Z,11.19
2023-08-07T05:23:17.422Z,11.22
2023-08-07T05:26:19.930Z,11.22
2023-08-07T05:29:23.433Z,11.22
2023-08-07T05:32:25.421Z,11.24
2023-08-07T05:35:29.385Z,11.25
2023-08-07T05:38:33.731Z,11.23
2023-08-07T05:41:43.130Z,11.21
2023-08-07T05:44:46.061Z,11.22
2023-08-07T05:47:50.181Z,11.22
2023-08-07T05:50:54.385Z,11.23
2023-08-07T05:53:58.407Z,11.21
2023-08-07T05:57:03.176Z,11.21
2023-08-07T06:00:08.992Z,11.21
2023-08-07T06:06:45.176Z,11.27
2023-08-07T06:09:52.445Z,11.31
2023-08-07T06:12:56.847Z,11.42
2023-08-07T06:16:08.563Z,11.48
2023-08-07T06:22:29.576Z,11.55
2023-08-07T06:25:43.613Z,11.61
2023-08-07T06:28:48.276Z,11.61
2023-08-07T06:31:54.012Z,11.68
2023-08-07T06:34:58.416Z,11.70
2023-08-07T06:38:00.425Z,11.82
2023-08-07T06:41:04.121Z,11.91
2023-08-07T06:44:06.204Z,11.99
2023-08-07T06:47:11.018Z,12.03
2023-08-07T06:50:14.742Z,12.07
2023-08-07T06:53:20.743Z,12.15
2023-08-07T06:56:26.675Z,12.21
2023-08-07T06:59:31.108Z,12.26
2023-08-07T07:02:34.152Z,12.28
2023-08-07T07:05:39.135Z,12.35
2023-08-07T07:08:42.784Z,12.42
2023-08-07T07:11:48.279Z,12.43
2023-08-07T07:14:54.415Z,12.41
2023-08-07T07:17:59.823Z,12.41
2023-08-07T07:21:27.586Z,12.47
2023-08-07T07:24:32.578Z,12.52
2023-08-07T07:27:38.359Z,12.58
2023-08-07T07:30:43.655Z,12.63
2023-08-07T07:33:53.597Z,12.70
2023-08-07T07:36:58.494Z,12.74
2023-08-07T07:40:04.450Z,12.75
2023-08-07T07:43:06.535Z,12.80
2023-08-07T07:46:09.690Z,12.85
2023-08-07T07:49:14.200Z,12.91
2023-08-07T07:52:16.663Z,12.93
2023-08-07T07:55:21.879Z,12.95
2023-08-07T07:58:33.912Z,12.99
2023-08-07T08:01:40.059Z,13.03
2023-08-07T08:04:44.706Z,13.07
2023-08-07T08:07:47.051Z,13.08
2023-08-07T08:11:03.517Z,13.09
2023-08-07T08:14:07.558Z,13.08
2023-08-07T08:17:13.019Z,13.14
2023-08-07T08:20:19.309Z,13.17
2023-08-07T08:23:25.331Z,13.17
2023-08-07T08:26:27.529Z,13.26
2023-08-07T08:29:32.798Z,13.29
2023-08-07T08:32:37.021Z,13.31
2023-08-07T08:35:46.509Z,13.26
2023-08-07T08:38:53.006Z,13.31
2023-08-07T08:41:56.633Z,13.36
2023-08-07T08:45:02.749Z,13.44
2023-08-07T08:48:28.392Z,13.46
2023-08-07T08:51:41.154Z,13.61
2023-08-07T08:54:46.585Z,13.72
2023-08-07T08:57:52.435Z,13.74
2023-08-07T09:00:55.223Z,13.73
2023-08-07T09:03:59.803Z,13.72
2023-08-07T09:07:08.714Z,13.76
2023-08-07T09:10:28.050Z,13.82
2023-08-07T09:13:40.623Z,13.78
2023-08-07T09:16:48.013Z,13.79
2023-08-07T09:19:53.653Z,13.73
2023-08-07T09:22:57.507Z,13.71
2023-08-07T09:29:31.749Z,13.91
2023-08-07T09:32:37.121Z,13.99
2023-08-07T09:35:41.052Z,14.08
2023-08-07T09:38:47.151Z,14.08
2023-08-07T09:41:59.848Z,14.14
2023-08-07T09:45:11.365Z,14.25
2023-08-07T09:48:17.396Z,14.31
2023-08-07T09:51:21.687Z,14.35
2023-08-07T09:54:26.846Z,14.44
2023-08-07T09:57:41.087Z,14.50
2023-08-07T10:00:52.817Z,14.64
2023-08-07T10:03:58.728Z,14.90
2023-08-07T10:07:25.849Z,15.03
2023-08-07T10:10:37.322Z,15.15
2023-08-07T10:13:42.696Z,15.36
2023-08-07T10:16:47.567Z,15.44
2023-08-07T10:19:52.829Z,15.61
2023-08-07T10:23:03.313Z,15.69
2023-08-07T10:26:08.905Z,15.71
2023-08-07T10:29:16.162Z,15.64
2023-08-07T10:32:31.309Z,15.52
2023-08-07T10:35:34.907Z,15.48
2023-08-07T10:38:37.546Z,15.42
2023-08-07T10:41:50.880Z,15.36
2023-08-07T10:44:54.413Z,15.27
2023-08-07T10:51:36.931Z,15.14
2023-08-07T10:54:59.586Z,15.15
2023-08-07T10:58:02.158Z,15.20
2023-08-07T11:01:41.341Z,15.28
2023-08-07T11:04:44.227Z,15.36
2023-08-07T11:07:47.185Z,15.39
2023-08-07T11:10:49.266Z,15.46
2023-08-07T11:13:52.121Z,15.52
2023-08-07T11:16:56.538Z,15.56
2023-08-07T11:20:00.946Z,15.55
2023-08-07T11:23:07.171Z,15.63
2023-08-07T11:26:13.274Z,15.74
2023-08-07T11:29:23.765Z,15.79
2023-08-07T11:32:28.113Z,15.87
2023-08-07T11:35:42.038Z,16.02
2023-08-07T11:38:45.873Z,16.16
2023-08-07T11:41:55.490Z,16.25
2023-08-07T11:44:59.832Z,16.26
2023-08-07T11:48:06.201Z,16.21
2023-08-07T11:51:11.583Z,16.19
2023-08-07T11:54:17.935Z,16.30
2023-08-07T11:57:22.573Z,16.43
2023-08-07T12:00:31.286Z,16.55
2023-08-07T12:03:43.906Z,16.64
2023-08-07T12:06:58.595Z,16.75
2023-08-07T12:10:08.007Z,16.75
2023-08-07T12:13:14.043Z,16.87
2023-08-07T12:16:18.573Z,16.98
2023-08-07T12:19:23.870Z,17.05
2023-08-07T12:22:29.663Z,17.18
2023-08-07T12:25:42.083Z,17.31
2023-08-07T12:28:47.954Z,17.37
2023-08-07T12:31:52.214Z,17.40
2023-08-07T12:38:06.137Z,17.23
2023-08-07T12:41:44.757Z,17.14
2023-08-07T12:44:32.581Z,17.09
2023-08-07T12:47:34.685Z,17.11
2023-08-07T12:50:38.968Z,17.16
2023-08-07T12:53:51.254Z,17.07
2023-08-07T12:56:57.044Z,17.04
2023-08-07T12:59:59.028Z,17.08
2023-08-07T13:03:01.145Z,17.05
2023-08-07T13:09:22.828Z,17.24
2023-08-07T13:12:25.883Z,17.30
2023-08-07T13:15:31.034Z,17.29
2023-08-07T13:18:36.393Z,17.44
2023-08-07T13:21:41.398Z,17.59
2023-08-07T13:24:52.289Z,17.72
2023-08-07T13:27:59.549Z,17.65
2023-08-07T13:31:05.617Z,17.50
2023-08-07T13:34:11.661Z,17.42
2023-08-07T13:37:16.856Z,17.30
2023-08-07T13:40:22.122Z,17.10
2023-08-07T13:43:23.741Z,16.91
2023-08-07T13:46:28.280Z,16.78
2023-08-07T13:49:31.515Z,16.69
2023-08-07T13:52:37.977Z,16.64
2023-08-07T13:55:41.909Z,16.62
2023-08-07T13:58:46.030Z,16.57
2023-08-07T14:01:54.760Z,16.57
2023-08-07T14:04:58.514Z,16.56
2023-08-07T14:08:03.544Z,16.50
2023-08-07T14:11:09.181Z,16.42
2023-08-07T14:14:14.703Z,16.43
2023-08-07T14:20:41.487Z,16.46
2023-08-07T14:23:53.635Z,16.56
2023-08-07T14:26:55.956Z,16.58
2023-08-07T14:30:01.521Z,16.57
2023-08-07T14:33:04.642Z,16.58
2023-08-07T14:36:10.057Z,16.56
2023-08-07T14:42:31.577Z,16.45
2023-08-07T14:45:44.284Z,16.37
2023-08-07T14:48:47.988Z,16.31
2023-08-07T14:51:53.443Z,16.22
2023-08-07T14:54:58.932Z,16.14
2023-08-07T14:58:04.715Z,16.08
2023-08-07T15:01:10.814Z,16.05
2023-08-07T15:04:15.178Z,15.94
2023-08-07T15:07:18.259Z,15.88
2023-08-07T15:10:24.917Z,15.81
2023-08-07T15:13:31.244Z,15.76
2023-08-07T15:16:42.137Z,15.66
2023-08-07T15:19:46.901Z,15.60
2023-08-07T15:22:52.834Z,15.47
2023-08-07T15:25:54.894Z,15.44
2023-08-07T15:28:57.006Z,15.40
2023-08-07T15:31:59.765Z,15.34
2023-08-07T15:35:01.808Z,15.28
2023-08-07T15:38:04.464Z,15.24
2023-08-07T15:41:08.833Z,15.25
2023-08-07T15:47:27.913Z,15.26
2023-08-07T15:50:32.489Z,15.30
2023-08-07T15:53:35.042Z,15.35
2023-08-07T15:56:38.545Z,15.36
2023-08-07T15:59:44.165Z,15.29
2023-08-07T16:02:50.837Z,15.24
2023-08-07T16:05:56.931Z,15.31
2023-08-07T16:08:59.038Z,15.30
2023-08-07T16:12:05.100Z,15.27
2023-08-07T16:15:12.060Z,15.27
2023-08-07T16:18:16.671Z,15.34
2023-08-07T16:21:21.068Z,15.34
2023-08-07T16:24:25.725Z,15.34
2023-08-07T16:27:36.897Z,15.32
2023-08-07T16:30:41.462Z,15.31
2023-08-07T16:33:47.522Z,15.31
2023-08-07T16:36:52.889Z,15.30
2023-08-07T16:39:58.151Z,15.31
2023-08-07T16:43:09.434Z,15.34
2023-08-07T16:46:13.069Z,15.34
2023-08-07T16:49:19.902Z,15.34
2023-08-07T16:52:24.491Z,15.34
2023-08-07T16:55:29.895Z,15.38
2023-08-07T16:58:33.752Z,15.40
2023-08-07T17:01:35.966Z,15.43
2023-08-07T17:04:39.018Z,15.46
2023-08-07T17:07:45.087Z,15.50
2023-08-07T17:10:50.319Z,15.50
2023-08-07T17:13:54.915Z,15.51
2023-08-07T17:17:06.375Z,15.53
2023-08-07T17:20:12.735Z,15.56
2023-08-07T17:23:18.700Z,15.61
2023-08-07T17:26:21.144Z,15.67
2023-08-07T17:29:24.971Z,15.67
2023-08-07T17:32:27.106Z,15.70
2023-08-07T17:35:41.285Z,15.70
2023-08-07T17:38:46.522Z,15.70
2023-08-07T17:41:49.274Z,15.70
2023-08-07T17:44:54.110Z,15.68
2023-08-07T17:47:59.444Z,15.66
2023-08-07T17:51:02.963Z,15.63
2023-08-07T17:54:07.682Z,15.63
2023-08-07T17:57:11.078Z,15.60
2023-08-07T18:00:18.829Z,15.60
2023-08-07T18:03:22.763Z,15.53
2023-08-07T18:06:26.174Z,15.55
2023-08-07T18:09:30.665Z,15.54
2023-08-07T18:12:33.306Z,15.53
2023-08-07T18:15:38.261Z,15.48
2023-08-07T18:18:42.111Z,15.46
2023-08-07T18:21:46.682Z,15.43
2023-08-07T18:24:57.503Z,15.31
2023-08-07T18:28:02.299Z,15.32
2023-08-07T18:31:09.001Z,15.27
2023-08-07T18:34:13.868Z,15.25
2023-08-07T18:37:19.615Z,15.22
2023-08-07T18:40:23.248Z,15.22
2023-08-07T18:43:27.039Z,15.20
2023-08-07T18:46:30.312Z,15.16
2023-08-07T18:49:33.242Z,15.15
2023-08-07T18:52:37.964Z,15.12
2023-08-07T18:55:42.667Z,15.06
2023-08-07T18:58:47.636Z,15.04
2023-08-07T19:01:52.862Z,15.01
2023-08-07T19:04:58.518Z,14.95
2023-08-07T19:08:12.091Z,14.92
2023-08-07T19:11:18.869Z,14.87
2023-08-07T19:14:23.588Z,14.87
2023-08-07T19:17:28.351Z,14.85
2023-08-07T19:20:32.560Z,14.85
2023-08-07T19:23:36.201Z,14.82
2023-08-07T19:26:38.577Z,14.79
2023-08-07T19:29:43.542Z,14.75
2023-08-07T19:32:54.515Z,14.72
2023-08-07T19:35:57.744Z,14.70
2023-08-07T19:39:04.684Z,14.67
2023-08-07T19:42:09.839Z,14.63
2023-08-07T19:45:12.394Z,14.53
2023-08-07T19:48:14.523Z,14.53
2023-08-07T19:51:17.884Z,14.53
2023-08-07T19:54:19.950Z,14.49
2023-08-07T19:57:22.015Z,14.45
2023-08-07T20:00:24.284Z,14.43
2023-08-07T20:03:29.789Z,14.40
2023-08-07T20:06:35.396Z,14.32
2023-08-07T20:09:51.432Z,14.29
2023-08-07T20:12:56.148Z,14.24
2023-08-07T20:16:08.703Z,14.19
2023-08-07T20:19:12.264Z,14.12
2023-08-07T20:22:42.978Z,14.11
2023-08-07T20:25:46.255Z,14.04
2023-08-07T20:28:52.270Z,13.95
2023-08-07T20:31:57.640Z,13.93
2023-08-07T20:35:08.593Z,13.89
2023-08-07T20:38:12.206Z,13.86
2023-08-07T20:41:16.001Z,13.83
2023-08-07T20:44:20.252Z,13.79
2023-08-07T20:47:31.498Z,13.75
2023-08-07T20:50:37.463Z,13.72
2023-08-07T20:53:42.462Z,13.69
2023-08-07T20:56:44.359Z,13.65
2023-08-07T20:59:47.851Z,13.62
2023-08-07T21:02:50.843Z,13.58
2023-08-07T21:06:03.557Z,13.56
2023-08-07T21:09:09.579Z,13.50
2023-08-07T21:12:15.276Z,13.45
2023-08-07T21:15:24.873Z,13.42
2023-08-07T21:18:30.515Z,13.42
2023-08-07T21:21:34.414Z,13.41
2023-08-07T21:24:40.166Z,13.35
2023-08-07T21:27:44.668Z,13.30
2023-08-07T21:30:48.040Z,13.28
2023-08-07T21:33:52.481Z,13.20
2023-08-07T21:37:07.267Z,13.17
2023-08-07T21:40:11.257Z,13.16
2023-08-07T21:46:32.281Z,13.10
2023-08-07T21:49:37.949Z,13.09
2023-08-07T21:52:40.031Z,13.05
2023-08-07T21:55:45.379Z,13.06
2023-08-07T21:58:50.618Z,13.01
2023-08-07T22:01:54.194Z,12.98
2023-08-07T22:04:56.704Z,12.97
2023-08-07T22:08:02.756Z,12.95
2023-08-07T22:11:11.914Z,12.89
2023-08-07T22:14:26.236Z,12.84
2023-08-07T22:17:31.671Z,12.82
2023-08-07T22:20:35.345Z,12.76
2023-08-07T22:23:39.813Z,12.72
2023-08-07T22:26:47.981Z,12.68
2023-08-07T22:29:50.620Z,12.65
2023-08-07T22:33:02.440Z,12.62
2023-08-07T22:36:06.496Z,12.60
2023-08-07T22:42:37.985Z,12.56
2023-08-07T22:45:49.529Z,12.53
2023-08-07T22:48:51.706Z,12.50
2023-08-07T22:51:55.455Z,12.47
2023-08-07T22:55:00.239Z,12.45
2023-08-07T22:58:03.468Z,12.42
2023-08-07T23:01:08.452Z,12.38
2023-08-07T23:04:13.492Z,12.35
2023-08-07T23:07:20.598Z,12.36
2023-08-07T23:10:24.066Z,12.34
2023-08-07T23:13:37.611Z,12.32
2023-08-07T23:16:43.804Z,12.28
2023-08-07T23:19:58.562Z,12.34
2023-08-07T23:23:10.851Z,12.33
2023-08-07T23:26:16.232Z,12.32
2023-08-07T23:29:19.290Z,12.33
2023-08-07T23:32:31.933Z,12.31
2023-08-07T23:35:34.613Z,12.35
2023-08-07T23:38:39.966Z,12.35
2023-08-07T23:41:50.703Z,12.36
2023-08-07T23:44:57.423Z,12.38
2023-08-07T23:48:06.000Z,12.38
2023-08-07T23:51:11.588Z,12.37
2023-08-07T23:54:15.184Z,12.34
